• Join FlightAware (Why Join?)
  • Login
  • US Flag 
05:06AM EDT


 

Airport Tracker/Info


-or-


 

Live Flight TrackerFlight Track Log ✈ N942CE ✈ 30-Apr-2013 ✈ KOWB - KPTK

Flight Track Log - Related Links

Times and Time Zones

All times are in EDT time to prevent confusion due to time zone crossing. See the N942CE flight status page for this flight to view local times or setup timezone preferences in your user account.

Time Position Orientation Groundspeed Altitude Reporting Facility
EDT Latitude Longitude Course Direction KTS MPH feet Rate Location/Type
10:09PM 37.8067 -87.1303 29° Northeast 156 180 3,400  Level Indianapolis Center
10:10PM 37.8522 -87.1100 19° North 169 194 5,000 1,500 Climbing Indianapolis Center
10:12PM 37.9408 -87.0581 25° Northeast 176 203 8,000 1,440 Climbing Indianapolis Center
10:13PM 37.9875 -87.0297 26° Northeast 186 214 9,500 1,500 Climbing Indianapolis Center
10:14PM 38.1011 -86.9119 29° Northeast  Level Estimated
10:14PM 38.0358 -87.0017 25° Northeast 189 217 11,100  Level Indianapolis Center
10:15PM 38.1614 -86.8692 29° Northeast  Level Estimated
10:15PM 38.0914 -86.9683 25° Northeast 184 212 13,100  Level Indianapolis Center
10:17PM 38.1610 -86.9094 28° Northeast  Level FlightAware Approximate
10:18PM 38.2364 -86.8844 24° Northeast 197 227 17,700  Level Indianapolis Center
10:19PM 38.2836 -86.8561 25° Northeast 190 219 19,100 1,320 Climbing Indianapolis Center
10:20PM 38.3322 -86.8275 25° Northeast 192 221 20,400 1,260 Climbing Indianapolis Center
10:21PM 38.3811 -86.7975 26° Northeast 195 224 21,700 1,260 Climbing Indianapolis Center
10:22PM 38.4306 -86.7675 25° Northeast 197 227 23,000 1,140 Climbing Indianapolis Center
10:23PM 38.4794 -86.7403 24° Northeast 194 223 24,100 900 Climbing Indianapolis Center
10:24PM 38.5995 -86.6503 24° Northeast  Level FlightAware Approximate
10:24PM 38.5286 -86.7086 27° Northeast 198 228 24,900  Level Indianapolis Center
10:25PM 38.5853 -86.6758 24° Northeast 221 254 25,000  Climbing Indianapolis Center
10:27PM 38.6622 -86.6283 26° Northeast 254 292 25,000  Level Indianapolis Center
10:28PM 38.7294 -86.5889 25° Northeast 263 303 25,000  Level Indianapolis Center
10:29PM 38.7972 -86.5494 24° Northeast 265 305 25,000  Level Indianapolis Center
10:30PM 38.8650 -86.5072 26° Northeast 268 308 25,000  Level Indianapolis Center
10:31PM 38.9300 -86.4683 25° Northeast 268 308 25,000  Level Indianapolis Center
10:32PM 38.9992 -86.4278 24° Northeast 269 310 25,000  Level Indianapolis Center
10:33PM 39.0667 -86.3856 26° Northeast 269 310 25,000  Level Indianapolis Center
10:34PM 39.1353 -86.3444 25° Northeast 270 311 25,000  Level Indianapolis Center
10:35PM 39.2025 -86.3028 26° Northeast 267 307 25,000  Level Indianapolis Center
10:36PM 39.2703 -86.2619 25° Northeast 267 307 25,000  Level Indianapolis Center
10:37PM 39.3500 -86.2125 26° Northeast 270 311 25,000  Level Indianapolis Center
10:38PM 39.4172 -86.1711 25° Northeast 269 310 25,000  Level Indianapolis Center
10:39PM 39.4842 -86.1297 26° Northeast 267 307 25,000  Level Indianapolis Center
10:40PM 39.5511 -86.0878 26° Northeast 267 307 25,000  Level Indianapolis Center
10:41PM 39.6181 -86.0469 25° Northeast 266 306 25,000  Level Indianapolis Center
10:42PM 39.6850 -86.0047 26° Northeast 268 308 25,000  Level Indianapolis Center
10:43PM 39.7525 -85.9644 25° Northeast 267 307 25,000  Level Indianapolis Center
10:44PM 39.8197 -85.9214 26° Northeast 268 308 25,000  Level Indianapolis Center
10:45PM 39.8872 -85.8800 25° Northeast 267 307 25,000  Level Indianapolis Center
10:46PM 39.9536 -85.8383 26° Northeast 265 305 25,000  Level Indianapolis Center
10:47PM 40.0308 -85.7897 26° Northeast 264 304 25,000  Level Indianapolis Center
10:48PM 40.0975 -85.7500 25° Northeast 263 303 25,000  Level Indianapolis Center
10:49PM 40.1417 -85.7197 28° Northeast 265 305 25,000  Level Chicago Center
10:50PM 40.2069 -85.6794 25° Northeast 260 299 25,000  Level Chicago Center
10:51PM 40.2725 -85.6381 26° Northeast 260 299 25,000  Level Chicago Center
10:52PM 40.3389 -85.5967 25° Northeast 262 302 25,000 -300 Level Chicago Center
10:54PM 40.4736 -85.5111 26° Northeast 274 315 24,200 -360 Descending Chicago Center
10:55PM 40.5431 -85.4664 26° Northeast 277 319 24,000 -120 Descending Chicago Center
10:56PM 40.6119 -85.4222 26° Northeast 275 316 24,000  Level Chicago Center
10:57PM 40.6794 -85.3906 20° North 266 306 24,000 -180 Level Chicago Center
10:58PM 40.7481 -85.3542 22° Northeast 266 306 23,700 -660 Descending Chicago Center
10:59PM 40.8247 -85.2850 34° Northeast 276 318 22,700 -1,020 Descending Chicago Center
11:00PM 40.8869 -85.2219 37° Northeast 282 325 21,700 -840 Descending Chicago Center
11:01PM 40.9511 -85.1600 36° Northeast 285 328 21,000 -360 Descending Chicago Center
11:02PM 41.0128 -85.1003 36° Northeast 280 322 21,000  Level Chicago Center
11:03PM 41.0736 -85.0414 36° Northeast 275 316 21,000  Level Chicago Center
11:04PM 41.1331 -84.9825 37° Northeast 270 311 21,000  Level Chicago Center
11:05PM 41.1933 -84.9217 37° Northeast 273 314 21,000  Level Chicago Center
11:07PM 41.3019 -84.8181 36° Northeast 278 320 21,000  Level Cleveland Center
11:07PM 41.3142 -84.8036 42° Northeast 273 314 21,000  Level Chicago Center
11:08PM 41.3736 -84.7439 37° Northeast 270 311 21,000 -60 Level Chicago Center
11:09PM 41.4344 -84.6847 36° Northeast 271 312 20,900 -840 Descending Chicago Center
11:10PM 41.4947 -84.6219 38° Northeast 276 318 19,400 -1,680 Descending Chicago Center
11:11PM 41.5486 -84.5733 34° Northeast 283 326 18,100 -1,740 Descending Cleveland Center
11:12PM 41.6133 -84.5050 38° Northeast 283 326 16,500 -1,620 Descending Cleveland Center
11:13PM 41.6758 -84.4450 36° Northeast 283 326 14,900 -1,680 Descending Cleveland Center
11:14PM 41.7364 -84.3875 35° Northeast 277 319 13,200 -1,860 Descending Cleveland Center
11:14PM 41.7775 -84.3425 39° Northeast 264 304 11,900 -1,740 Descending Cleveland Center
11:15PM 41.7944 -84.3294 30° Northeast 266 306 11,500 -660 Descending Cleveland Center
11:16PM 41.8636 -84.2583 37° Northeast 253 291 10,900 -780 Descending Cleveland Center
11:17PM 41.9089 -84.2050 41° Northeast 246 283 10,000 -600 Descending Cleveland Center
11:18PM 41.9669 -84.1497 35° Northeast 246 283 9,900 -60 Descending Cleveland Center
11:19PM 42.0308 -84.1114 24° Northeast 246 283 9,900  Level Cleveland Center
11:20PM 42.0886 -84.0586 34° Northeast 246 283 9,900  Level Cleveland Center
11:21PM 42.1428 -83.9969 40° Northeast 246 283 9,900  Level Cleveland Center
11:21PM 42.1597 -83.9811 35° Northeast 251 289 9,900  Level Cleveland Center
11:22PM 42.1944 -83.9381 43° Northeast 246 283 9,900  Level Cleveland Center
11:22PM 42.2136 -83.9250 27° Northeast 252 290 9,900 -1,380 Level Cleveland Center
11:24PM 42.3256 -83.7961 40° Northeast 253 291 6,800 -1,620 Descending Cleveland Center
11:25PM 42.3814 -83.7372 38° Northeast 247 284 5,100 -1,380 Descending Cleveland Center
11:26PM 42.4331 -83.6778 40° Northeast 242 278 4,000 -660 Descending Cleveland Center
11:27PM 42.4783 -83.6267 40° Northeast 203 234 3,800 -480 Descending Cleveland Center
11:28PM 42.5233 -83.5781 39° Northeast 208 239 3,100 -600 Descending Cleveland Center
11:29PM 42.5658 -83.5461 29° Northeast 190 219 2,600 -360 Descending Cleveland Center
11:30PM 42.6203 -83.5375 North 164 189 2,400 -120 Descending Cleveland Center
11:31PM 42.6542 -83.5194 21° North 160 184 2,400 -480 Level Cleveland Center
11:32PM 42.6636 -83.4747 74° East 109 125 1,500 -900 Descending Cleveland Center
11:34PM 42.6500 -83.4167 56° Northeast  Level FlightAware Approximate
11:41PM 42.6656 -83.4205 56° Northeast  Level Estimated